createdAt,value
2022-11-23T00:02:19.778Z,6.30
2022-11-23T00:04:49.524Z,6.30
2022-11-23T00:07:20.580Z,6.30
2022-11-23T00:09:49.592Z,6.30
2022-11-23T00:12:19.439Z,6.30
2022-11-23T00:14:50.848Z,6.20
2022-11-23T00:17:19.371Z,6.20
2022-11-23T00:19:48.709Z,6.20
2022-11-23T00:22:19.640Z,6.20
2022-11-23T00:24:50.387Z,6.10
2022-11-23T00:27:20.462Z,6.10
2022-11-23T00:29:50.261Z,6.00
2022-11-23T00:32:20.187Z,6.00
2022-11-23T00:34:48.443Z,6.00
2022-11-23T00:37:18.750Z,5.90
2022-11-23T00:39:49.736Z,5.90
2022-11-23T00:42:26.896Z,5.90
2022-11-23T00:44:55.521Z,5.80
2022-11-23T00:47:28.289Z,5.80
2022-11-23T00:50:05.334Z,5.80
2022-11-23T00:52:40.999Z,5.80
2022-11-23T00:55:16.100Z,5.80
2022-11-23T00:57:47.604Z,5.70
2022-11-23T01:00:24.770Z,5.70
2022-11-23T01:02:52.745Z,5.70
2022-11-23T01:05:21.515Z,5.70
2022-11-23T01:07:50.095Z,5.70
2022-11-23T01:10:19.426Z,5.70
2022-11-23T01:12:51.368Z,5.60
2022-11-23T01:15:20.822Z,5.60
2022-11-23T01:18:01.419Z,5.70
2022-11-23T01:20:38.635Z,5.60
2022-11-23T01:23:13.881Z,5.70
2022-11-23T01:25:43.844Z,5.70
2022-11-23T01:28:16.569Z,5.70
2022-11-23T01:30:46.095Z,5.70
2022-11-23T01:33:16.592Z,5.80
2022-11-23T01:35:45.268Z,5.80
2022-11-23T01:38:18.386Z,5.80
2022-11-23T01:40:48.366Z,5.90
2022-11-23T01:43:22.690Z,5.90
2022-11-23T01:46:02.858Z,5.90
2022-11-23T01:48:36.150Z,6.00
2022-11-23T01:51:10.223Z,6.00
2022-11-23T01:53:39.621Z,6.00
2022-11-23T01:56:11.988Z,6.10
2022-11-23T01:58:48.234Z,6.10
2022-11-23T02:01:20.118Z,6.20
2022-11-23T02:03:54.975Z,6.20
2022-11-23T02:06:24.816Z,6.20
2022-11-23T02:08:56.362Z,6.30
2022-11-23T02:11:25.018Z,6.30
2022-11-23T02:13:57.077Z,6.30
2022-11-23T02:16:26.148Z,6.30
2022-11-23T02:19:05.133Z,6.40
2022-11-23T02:21:34.224Z,6.40
2022-11-23T02:24:09.878Z,6.40
2022-11-23T02:26:43.090Z,6.50
2022-11-23T02:29:15.093Z,6.50
2022-11-23T02:31:57.961Z,6.50
2022-11-23T02:34:27.159Z,6.50
2022-11-23T02:37:02.080Z,6.50
2022-11-23T02:39:34.452Z,6.50
2022-11-23T02:42:06.322Z,6.50
2022-11-23T02:44:43.152Z,6.60
2022-11-23T02:47:14.358Z,6.60
2022-11-23T02:49:46.682Z,6.60
2022-11-23T02:52:19.895Z,6.60
2022-11-23T02:54:50.423Z,6.60
2022-11-23T02:57:24.004Z,6.60
2022-11-23T02:59:53.399Z,6.60
2022-11-23T03:02:25.167Z,6.50
2022-11-23T03:04:55.774Z,6.60
2022-11-23T03:07:27.773Z,6.60
2022-11-23T03:09:57.964Z,6.60
2022-11-23T03:12:29.767Z,6.50
2022-11-23T03:15:02.039Z,6.60
2022-11-23T03:17:30.277Z,6.50
2022-11-23T03:20:02.165Z,6.50
2022-11-23T03:22:32.671Z,6.50
2022-11-23T03:25:03.004Z,6.50
2022-11-23T03:27:35.953Z,6.60
2022-11-23T03:30:06.235Z,6.60
2022-11-23T03:32:40.303Z,6.50
2022-11-23T03:35:15.016Z,6.50
2022-11-23T03:37:46.500Z,6.50
2022-11-23T03:40:15.831Z,6.50
2022-11-23T03:42:46.028Z,6.60
2022-11-23T03:45:14.523Z,6.50
2022-11-23T03:47:42.854Z,6.60
2022-11-23T03:50:13.508Z,6.50
2022-11-23T03:52:41.407Z,6.60
2022-11-23T03:55:10.232Z,6.50
2022-11-23T03:57:40.098Z,6.50
2022-11-23T04:00:11.337Z,6.50
2022-11-23T04:02:39.687Z,6.60
2022-11-23T04:05:08.873Z,6.60
2022-11-23T04:07:38.480Z,6.60
2022-11-23T04:10:07.961Z,6.60
2022-11-23T04:12:36.093Z,6.60
2022-11-23T04:15:05.993Z,6.60
2022-11-23T04:17:35.448Z,6.60
2022-11-23T04:20:05.747Z,6.60
2022-11-23T04:22:36.380Z,6.60
2022-11-23T04:25:04.783Z,6.60
2022-11-23T04:27:34.458Z,6.60
2022-11-23T04:30:10.224Z,6.70
2022-11-23T04:32:43.077Z,6.70
2022-11-23T04:35:12.891Z,6.70
2022-11-23T04:37:41.635Z,6.70
2022-11-23T04:40:12.678Z,6.70
2022-11-23T04:42:42.008Z,6.80
2022-11-23T04:45:13.646Z,6.70
2022-11-23T04:47:47.053Z,6.70
2022-11-23T04:50:15.774Z,6.80
2022-11-23T04:52:44.023Z,6.80
2022-11-23T04:55:12.084Z,6.80
2022-11-23T04:57:42.806Z,6.80
2022-11-23T05:00:13.067Z,6.80
2022-11-23T05:02:42.749Z,6.80
2022-11-23T05:05:14.479Z,6.80
2022-11-23T05:07:42.858Z,6.90
2022-11-23T05:10:11.921Z,6.90
2022-11-23T05:12:42.582Z,6.90
2022-11-23T05:15:15.718Z,6.90
2022-11-23T05:17:45.473Z,6.90
2022-11-23T05:20:14.154Z,6.90
2022-11-23T05:22:44.468Z,6.90
2022-11-23T05:25:12.734Z,6.90
2022-11-23T05:27:43.482Z,6.90
2022-11-23T05:30:15.226Z,6.90
2022-11-23T05:32:43.823Z,6.90
2022-11-23T05:35:17.213Z,7.00
2022-11-23T05:37:48.167Z,6.90
2022-11-23T05:40:22.917Z,6.90
2022-11-23T05:42:57.582Z,7.00
2022-11-23T05:45:29.054Z,7.00
2022-11-23T05:47:59.172Z,6.90
2022-11-23T05:50:39.272Z,6.90
2022-11-23T05:53:09.153Z,6.90
2022-11-23T05:55:43.692Z,6.90
2022-11-23T05:58:12.574Z,6.90
2022-11-23T06:00:42.161Z,6.90
2022-11-23T06:03:11.970Z,6.90
2022-11-23T06:05:50.565Z,6.90
2022-11-23T06:08:21.485Z,6.90
2022-11-23T06:10:52.154Z,6.80
2022-11-23T06:13:20.083Z,6.80
2022-11-23T06:15:56.139Z,6.80
2022-11-23T06:18:27.486Z,6.80
2022-11-23T06:21:03.936Z,6.80
2022-11-23T06:23:32.525Z,6.80
2022-11-23T06:26:03.670Z,6.80
2022-11-23T06:28:31.689Z,6.70
2022-11-23T06:31:04.464Z,6.70
2022-11-23T06:33:33.760Z,6.70
2022-11-23T06:36:05.093Z,6.70
2022-11-23T06:38:33.120Z,6.60
2022-11-23T06:41:03.997Z,6.60
2022-11-23T06:43:34.336Z,6.50
2022-11-23T06:46:06.071Z,6.50
2022-11-23T06:48:34.621Z,6.50
2022-11-23T06:51:06.022Z,6.50
2022-11-23T06:53:34.216Z,6.40
2022-11-23T06:56:03.891Z,6.40
2022-11-23T06:58:35.026Z,6.40
2022-11-23T07:01:06.156Z,6.40
2022-11-23T07:03:35.831Z,6.30
2022-11-23T07:06:11.235Z,6.20
2022-11-23T07:08:43.172Z,6.20
2022-11-23T07:11:12.805Z,6.20
2022-11-23T07:13:42.546Z,6.10
2022-11-23T07:16:11.031Z,6.10
2022-11-23T07:18:41.812Z,6.10
2022-11-23T07:21:11.754Z,6.00
2022-11-23T07:23:41.457Z,6.00
2022-11-23T07:26:11.113Z,6.00
2022-11-23T07:28:40.891Z,6.00
2022-11-23T07:31:09.541Z,5.90
2022-11-23T07:33:37.910Z,5.90
2022-11-23T07:36:07.714Z,5.90
2022-11-23T07:38:37.881Z,5.90
2022-11-23T07:41:06.596Z,5.90
2022-11-23T07:43:35.116Z,5.90
2022-11-23T07:46:04.426Z,6.00
2022-11-23T07:48:36.300Z,6.00
2022-11-23T07:51:06.845Z,6.00
2022-11-23T07:53:37.662Z,6.00
2022-11-23T07:56:09.113Z,6.00
2022-11-23T07:58:37.600Z,6.00
2022-11-23T08:01:05.989Z,6.10
2022-11-23T08:03:39.551Z,6.10
2022-11-23T08:06:11.395Z,6.10
2022-11-23T08:08:48.456Z,6.20
2022-11-23T08:11:18.295Z,6.20
2022-11-23T08:13:46.955Z,6.20
2022-11-23T08:16:20.937Z,6.30
2022-11-23T08:18:51.680Z,6.30
2022-11-23T08:21:19.693Z,6.40
2022-11-23T08:23:55.095Z,6.50
2022-11-23T08:26:23.814Z,6.50
2022-11-23T08:28:52.265Z,6.50
2022-11-23T08:31:24.150Z,6.50
2022-11-23T08:33:52.152Z,6.60
2022-11-23T08:36:20.971Z,6.70
2022-11-23T08:38:51.885Z,6.70
2022-11-23T08:41:21.188Z,6.70
2022-11-23T08:43:49.405Z,6.80
2022-11-23T08:46:17.740Z,6.90
2022-11-23T08:48:46.029Z,6.90
2022-11-23T08:51:14.041Z,6.90
2022-11-23T08:53:41.877Z,7.00
2022-11-23T08:56:11.927Z,7.00
2022-11-23T08:58:40.024Z,7.10
2022-11-23T09:01:10.435Z,7.10
2022-11-23T09:03:38.647Z,7.20
2022-11-23T09:06:07.226Z,7.20
2022-11-23T09:08:37.356Z,7.30
2022-11-23T09:11:07.893Z,7.30
2022-11-23T09:13:38.338Z,7.50
2022-11-23T09:16:08.855Z,7.50
2022-11-23T09:18:36.946Z,7.60
2022-11-23T09:21:08.432Z,7.70
2022-11-23T09:23:36.798Z,7.70
2022-11-23T09:26:06.306Z,7.80
2022-11-23T09:28:39.134Z,7.80
2022-11-23T09:31:13.249Z,7.90
2022-11-23T09:33:43.539Z,8.00
2022-11-23T09:36:11.703Z,8.10
2022-11-23T09:39:00.082Z,8.20
2022-11-23T09:41:56.275Z,8.30
2022-11-23T09:44:36.738Z,8.40
2022-11-23T09:47:26.190Z,8.40
2022-11-23T09:50:04.674Z,8.50
2022-11-23T09:52:33.245Z,8.60
2022-11-23T09:55:06.293Z,8.70
2022-11-23T09:57:35.517Z,8.90
2022-11-23T10:00:06.247Z,8.90
2022-11-23T10:02:41.442Z,8.90
2022-11-23T10:05:16.982Z,8.90
2022-11-23T10:08:01.715Z,9.00
2022-11-23T10:10:42.215Z,9.20
2022-11-23T10:13:33.993Z,9.30
2022-11-23T10:16:15.028Z,9.40
2022-11-23T10:18:54.025Z,9.40
2022-11-23T10:21:31.660Z,9.40
2022-11-23T10:24:11.820Z,9.50
2022-11-23T10:26:45.279Z,9.50
2022-11-23T10:29:17.286Z,9.60
2022-11-23T10:31:53.958Z,9.60
2022-11-23T10:34:47.268Z,9.60
2022-11-23T10:37:16.968Z,9.70
2022-11-23T10:39:45.184Z,9.70
2022-11-23T10:42:22.226Z,9.80
2022-11-23T10:44:53.439Z,9.80
2022-11-23T10:47:41.705Z,9.90
2022-11-23T10:50:27.367Z,10.10
2022-11-23T10:52:57.875Z,10.10
2022-11-23T10:55:30.496Z,10.20
2022-11-23T10:57:59.252Z,10.30
2022-11-23T11:00:31.095Z,10.20
2022-11-23T11:03:03.471Z,10.20
2022-11-23T11:08:26.537Z,10.30
2022-11-23T11:11:01.218Z,10.30
2022-11-23T11:13:32.466Z,10.30
2022-11-23T11:16:02.416Z,10.30
2022-11-23T11:18:35.412Z,10.40
2022-11-23T11:21:07.172Z,10.50
2022-11-23T11:23:40.276Z,10.60
2022-11-23T11:26:17.850Z,10.60
2022-11-23T11:28:50.308Z,10.70
2022-11-23T11:31:31.299Z,10.80
2022-11-23T11:34:07.534Z,10.80
2022-11-23T11:36:42.332Z,10.80
2022-11-23T11:39:19.341Z,11.00
2022-11-23T11:41:50.417Z,11.10
2022-11-23T11:44:24.609Z,11.10
2022-11-23T11:47:00.091Z,11.20
2022-11-23T11:49:33.587Z,11.30
2022-11-23T11:52:12.794Z,11.30
2022-11-23T11:54:49.959Z,11.30
2022-11-23T11:57:21.958Z,11.20
2022-11-23T11:59:53.040Z,11.10
2022-11-23T12:02:25.072Z,11.10
2022-11-23T12:05:06.512Z,11.20
2022-11-23T12:07:38.353Z,11.20
2022-11-23T12:10:13.261Z,11.30
2022-11-23T12:12:41.285Z,11.20
2022-11-23T12:15:47.216Z,11.30
2022-11-23T12:18:47.259Z,11.30
2022-11-23T12:21:27.480Z,11.30
2022-11-23T12:24:07.184Z,11.20
2022-11-23T12:26:47.382Z,11.30
2022-11-23T12:29:37.562Z,11.20
2022-11-23T12:32:15.722Z,11.30
2022-11-23T12:35:15.164Z,11.30
2022-11-23T12:37:57.296Z,11.20
2022-11-23T12:40:48.813Z,11.10
2022-11-23T12:43:24.702Z,11.10
2022-11-23T12:46:09.514Z,11.10
2022-11-23T12:48:50.864Z,11.10
2022-11-23T12:51:28.809Z,11.10
2022-11-23T12:54:13.769Z,11.10
2022-11-23T12:57:01.868Z,11.10
2022-11-23T12:59:40.436Z,11.00
2022-11-23T13:02:15.714Z,11.00
2022-11-23T13:05:12.339Z,11.10
2022-11-23T13:08:06.369Z,11.00
2022-11-23T13:10:58.450Z,11.00
2022-11-23T13:13:49.042Z,11.10
2022-11-23T13:16:39.421Z,11.00
2022-11-23T13:19:23.955Z,11.10
2022-11-23T13:21:52.146Z,11.10
2022-11-23T13:24:31.506Z,11.10
2022-11-23T13:27:47.203Z,11.10
2022-11-23T13:30:51.814Z,11.10
2022-11-23T13:33:31.753Z,11.10
2022-11-23T13:36:11.201Z,11.10
2022-11-23T13:38:44.030Z,11.10
2022-11-23T13:41:57.988Z,11.00
2022-11-23T13:44:29.149Z,11.10
2022-11-23T13:47:20.118Z,11.10
2022-11-23T13:49:50.451Z,11.00
2022-11-23T13:52:36.320Z,11.00
2022-11-23T13:55:17.982Z,11.00
2022-11-23T13:57:48.470Z,11.00
2022-11-23T14:00:47.885Z,10.90
2022-11-23T14:03:50.530Z,11.00
2022-11-23T14:06:25.509Z,10.90
2022-11-23T14:09:02.372Z,10.80
2022-11-23T14:11:31.418Z,10.90
2022-11-23T14:14:02.470Z,10.80
2022-11-23T14:17:03.599Z,10.80
2022-11-23T14:19:44.952Z,10.70
2022-11-23T14:22:23.114Z,10.70
2022-11-23T14:25:22.893Z,10.60
2022-11-23T14:28:06.391Z,10.60
2022-11-23T14:30:47.739Z,10.50
2022-11-23T14:33:28.619Z,10.40
2022-11-23T14:36:08.286Z,10.40
2022-11-23T14:38:59.482Z,10.20
2022-11-23T14:41:30.538Z,10.20
2022-11-23T14:44:01.687Z,10.10
2022-11-23T14:46:30.623Z,10.00
2022-11-23T14:49:06.747Z,9.90
2022-11-23T14:51:40.824Z,9.80
2022-11-23T14:54:11.538Z,9.70
2022-11-23T14:56:44.040Z,9.60
2022-11-23T14:59:22.848Z,9.50
2022-11-23T15:01:54.453Z,9.50
2022-11-23T15:04:29.078Z,9.50
2022-11-23T15:07:04.953Z,9.40
2022-11-23T15:09:43.233Z,9.50
2022-11-23T15:12:23.318Z,9.50
2022-11-23T15:14:52.339Z,9.50
2022-11-23T15:17:22.494Z,9.40
2022-11-23T15:19:59.373Z,9.40
2022-11-23T15:22:32.401Z,9.40
2022-11-23T15:25:09.132Z,9.40
2022-11-23T15:27:42.562Z,9.40
2022-11-23T15:30:18.567Z,9.40
2022-11-23T15:32:57.368Z,9.40
2022-11-23T15:35:34.180Z,9.50
2022-11-23T15:38:06.649Z,9.50
2022-11-23T15:40:38.547Z,9.50
2022-11-23T15:43:09.452Z,9.60
2022-11-23T15:45:44.582Z,9.70
2022-11-23T15:48:17.059Z,9.80
2022-11-23T15:50:51.078Z,9.80
2022-11-23T15:53:32.793Z,9.90
2022-11-23T15:56:03.958Z,9.80
2022-11-23T15:58:35.496Z,9.70
2022-11-23T16:01:16.572Z,9.70
2022-11-23T16:03:52.679Z,10.80
2022-11-23T16:06:38.811Z,9.60
2022-11-23T16:09:53.561Z,9.60
2022-11-23T16:12:30.410Z,9.60
2022-11-23T16:15:01.064Z,9.60
2022-11-23T16:17:31.729Z,9.70
2022-11-23T16:20:05.520Z,9.60
2022-11-23T16:22:37.603Z,9.60
2022-11-23T16:25:10.546Z,9.60
2022-11-23T16:27:38.728Z,9.60
2022-11-23T16:30:08.078Z,9.60
2022-11-23T16:32:36.534Z,9.60
2022-11-23T16:35:17.656Z,9.60
2022-11-23T16:37:46.486Z,9.60
2022-11-23T16:40:16.628Z,9.60
2022-11-23T16:42:45.822Z,9.50
2022-11-23T16:45:14.124Z,9.60
2022-11-23T16:47:53.619Z,9.50
2022-11-23T16:50:24.900Z,9.40
2022-11-23T16:52:53.227Z,9.40
2022-11-23T16:55:22.951Z,9.30
2022-11-23T16:57:52.448Z,9.30
2022-11-23T17:00:25.366Z,9.20
2022-11-23T17:02:54.920Z,9.00
2022-11-23T17:05:24.781Z,8.90
2022-11-23T17:07:52.803Z,8.80
2022-11-23T17:10:22.911Z,8.80
2022-11-23T17:12:53.433Z,8.70
2022-11-23T17:15:23.793Z,8.60
2022-11-23T17:17:52.550Z,8.50
2022-11-23T17:20:20.731Z,8.40
2022-11-23T17:22:51.495Z,8.40
2022-11-23T17:25:23.603Z,8.30
2022-11-23T17:27:56.290Z,8.30
2022-11-23T17:30:24.873Z,8.30
2022-11-23T17:32:53.087Z,8.30
2022-11-23T17:35:22.638Z,8.30
2022-11-23T17:37:53.168Z,8.30
2022-11-23T17:40:24.791Z,8.30
2022-11-23T17:42:54.761Z,8.30
2022-11-23T17:45:23.191Z,8.30
2022-11-23T17:47:51.387Z,8.30
2022-11-23T17:50:21.479Z,8.30
2022-11-23T17:52:51.211Z,8.30
2022-11-23T17:55:20.266Z,8.30
2022-11-23T17:57:48.806Z,8.30
2022-11-23T18:00:22.598Z,8.20
2022-11-23T18:02:52.106Z,8.20
2022-11-23T18:05:21.992Z,8.20
2022-11-23T18:07:51.221Z,8.20
2022-11-23T18:10:19.840Z,8.10
2022-11-23T18:12:48.888Z,8.10
2022-11-23T18:15:19.281Z,8.10
2022-11-23T18:17:47.763Z,8.00
2022-11-23T18:20:19.190Z,8.00
2022-11-23T18:22:49.151Z,8.00
2022-11-23T18:25:18.949Z,8.00
2022-11-23T18:27:47.855Z,7.90
2022-11-23T18:30:18.833Z,7.90
2022-11-23T18:32:47.588Z,7.90
2022-11-23T18:35:16.846Z,7.90
2022-11-23T18:37:44.946Z,7.90
2022-11-23T18:40:14.514Z,7.90
2022-11-23T18:42:45.045Z,7.90
2022-11-23T18:45:13.416Z,8.00
2022-11-23T18:47:43.595Z,8.00
2022-11-23T18:50:14.778Z,8.00
2022-11-23T18:52:42.862Z,7.90
2022-11-23T18:55:11.553Z,7.90
2022-11-23T18:57:40.130Z,7.90
2022-11-23T19:00:10.131Z,7.90
2022-11-23T19:02:39.407Z,7.90
2022-11-23T19:05:10.351Z,7.90
2022-11-23T19:07:39.295Z,7.90
2022-11-23T19:10:08.189Z,7.90
2022-11-23T19:12:36.925Z,7.90
2022-11-23T19:15:06.693Z,7.90
2022-11-23T19:17:35.246Z,7.90
2022-11-23T19:20:05.595Z,7.90
2022-11-23T19:22:35.463Z,7.90
2022-11-23T19:25:03.837Z,7.90
2022-11-23T19:27:36.885Z,7.90
2022-11-23T19:30:05.334Z,7.90
2022-11-23T19:32:38.787Z,7.90
2022-11-23T19:35:07.810Z,7.90
2022-11-23T19:37:38.973Z,7.90
2022-11-23T19:40:08.292Z,7.90
2022-11-23T19:42:37.372Z,7.90
2022-11-23T19:45:06.431Z,7.90
2022-11-23T19:47:34.563Z,8.00
2022-11-23T19:50:02.985Z,8.00
2022-11-23T19:53:03.569Z,7.90
2022-11-23T19:55:22.299Z,7.90
2022-11-23T19:57:50.621Z,7.80
2022-11-23T20:00:20.226Z,7.80
2022-11-23T20:02:48.507Z,7.70
2022-11-23T20:05:17.066Z,7.70
2022-11-23T20:07:47.627Z,7.60
2022-11-23T20:10:17.732Z,7.60
2022-11-23T20:12:47.490Z,7.60
2022-11-23T20:15:16.094Z,7.50
2022-11-23T20:17:47.262Z,7.50
2022-11-23T20:20:15.880Z,7.40
2022-11-23T20:22:44.935Z,7.40
2022-11-23T20:25:13.227Z,7.40
2022-11-23T20:27:42.284Z,7.40
2022-11-23T20:30:13.051Z,7.30
2022-11-23T20:32:41.452Z,7.40
2022-11-23T20:35:10.406Z,7.40
2022-11-23T20:37:38.301Z,7.50
2022-11-23T20:40:07.389Z,7.60
2022-11-23T20:42:35.813Z,7.60
2022-11-23T20:45:04.070Z,7.80
2022-11-23T20:47:33.629Z,7.90
2022-11-23T20:50:02.139Z,7.90
2022-11-23T20:52:30.223Z,7.90
2022-11-23T20:54:58.460Z,8.00
2022-11-23T20:57:27.487Z,8.00
2022-11-23T20:59:55.809Z,8.10
2022-11-23T21:02:23.953Z,8.20
2022-11-23T21:04:53.348Z,8.20
2022-11-23T21:07:22.110Z,8.20
2022-11-23T21:09:50.333Z,8.30
2022-11-23T21:12:35.777Z,8.30
2022-11-23T21:15:05.128Z,8.30
2022-11-23T21:17:33.418Z,8.40
2022-11-23T21:20:02.960Z,8.40
2022-11-23T21:22:33.990Z,8.40
2022-11-23T21:25:02.442Z,8.40
2022-11-23T21:27:30.803Z,8.40
2022-11-23T21:29:59.603Z,8.40
2022-11-23T21:32:30.029Z,8.40
2022-11-23T21:34:58.195Z,8.40
2022-11-23T21:37:28.576Z,8.30
2022-11-23T21:39:57.597Z,8.20
2022-11-23T21:42:25.736Z,8.20
2022-11-23T21:44:55.494Z,8.30
2022-11-23T21:47:23.981Z,8.30
2022-11-23T21:49:52.256Z,8.40
2022-11-23T21:52:21.739Z,8.50
2022-11-23T21:54:51.434Z,8.40
2022-11-23T21:57:19.579Z,8.40
2022-11-23T21:59:47.798Z,8.30
2022-11-23T22:02:16.382Z,8.10
2022-11-23T22:04:45.951Z,8.10
2022-11-23T22:07:15.494Z,8.00
2022-11-23T22:09:46.829Z,7.90
2022-11-23T22:12:16.468Z,7.90
2022-11-23T22:14:44.528Z,7.90
2022-11-23T22:17:12.684Z,7.90
2022-11-23T22:19:41.245Z,8.00
2022-11-23T22:22:10.670Z,8.00
2022-11-23T22:24:40.937Z,8.10
2022-11-23T22:27:09.782Z,8.30
2022-11-23T22:29:41.201Z,8.40
2022-11-23T22:32:10.987Z,8.40
2022-11-23T22:34:43.757Z,8.50
2022-11-23T22:37:11.673Z,8.60
2022-11-23T22:39:40.761Z,8.70
2022-11-23T22:42:11.603Z,8.70
2022-11-23T22:44:41.851Z,8.70
2022-11-23T22:47:11.107Z,8.70
2022-11-23T22:49:40.088Z,8.90
2022-11-23T22:52:08.819Z,9.00
2022-11-23T22:54:39.766Z,9.20
2022-11-23T22:57:08.223Z,9.20
2022-11-23T22:59:38.677Z,9.20
2022-11-23T23:02:08.954Z,9.20
2022-11-23T23:04:37.562Z,9.10
2022-11-23T23:07:05.999Z,9.10
2022-11-23T23:09:34.404Z,9.10
2022-11-23T23:12:03.607Z,9.20
2022-11-23T23:14:32.126Z,9.10
2022-11-23T23:17:00.872Z,9.10
2022-11-23T23:19:32.021Z,9.00
2022-11-23T23:22:03.351Z,9.00
2022-11-23T23:24:32.048Z,9.00
2022-11-23T23:27:00.558Z,9.00
2022-11-23T23:29:28.757Z,8.90
2022-11-23T23:31:57.217Z,8.90
2022-11-23T23:34:25.261Z,8.80
2022-11-23T23:36:55.124Z,8.80
2022-11-23T23:39:23.344Z,8.70
2022-11-23T23:41:52.634Z,8.60
2022-11-23T23:44:20.979Z,8.60
2022-11-23T23:46:49.337Z,8.50
2022-11-23T23:49:17.445Z,8.40
2022-11-23T23:51:51.318Z,8.40
2022-11-23T23:54:23.253Z,8.30
2022-11-23T23:56:51.644Z,8.30
2022-11-23T23:59:20.229Z,8.20
